createdAt,value
2023-04-11T00:04:37.186Z,29.96
2023-04-11T00:10:23.853Z,30.02
2023-04-11T00:16:11.153Z,30.08
2023-04-11T00:21:53.919Z,30.17
2023-04-11T00:27:36.358Z,30.26
2023-04-11T00:33:18.712Z,30.32
2023-04-11T00:44:22.490Z,30.45
2023-04-11T00:55:22.224Z,30.58
2023-04-11T01:01:05.141Z,30.66
2023-04-11T01:06:47.915Z,30.72
2023-04-11T01:13:11.301Z,30.75
2023-04-11T01:18:21.219Z,30.79
2023-04-11T01:24:06.847Z,30.79
2023-04-11T01:29:25.657Z,30.86
2023-04-11T01:35:45.343Z,30.91
2023-04-11T01:41:34.928Z,30.96
2023-04-11T01:45:19.256Z,30.99
2023-04-11T01:51:01.168Z,31.01
2023-04-11T02:02:05.432Z,31.10
2023-04-11T02:07:51.007Z,31.14
2023-04-11T02:13:07.855Z,31.22
2023-04-11T02:18:55.560Z,31.27
2023-04-11T02:24:39.218Z,31.28
2023-04-11T02:30:21.754Z,31.33
2023-04-11T02:35:50.854Z,31.34
2023-04-11T02:42:35.044Z,31.37
2023-04-11T02:47:42.630Z,31.43
2023-04-11T02:58:20.887Z,31.49
2023-04-11T03:04:18.417Z,31.52
2023-04-11T03:15:21.913Z,31.59
2023-04-11T03:21:21.677Z,31.62
2023-04-11T03:32:15.323Z,31.68
2023-04-11T03:37:33.957Z,31.72
2023-04-11T03:43:21.584Z,31.72
2023-04-11T03:49:10.743Z,31.75
2023-04-11T03:55:08.226Z,31.76
2023-04-11T04:07:03.327Z,31.82
2023-04-11T04:12:52.778Z,31.81
2023-04-11T04:17:31.728Z,31.85
2023-04-11T04:23:34.549Z,31.86
2023-04-11T04:28:34.174Z,31.88
2023-04-11T04:34:25.576Z,31.89
2023-04-11T04:40:06.584Z,31.89
2023-04-11T04:46:13.862Z,31.87
2023-04-11T04:52:25.439Z,31.88
2023-04-11T04:58:08.007Z,31.86
2023-04-11T05:09:34.990Z,31.95
2023-04-11T05:15:17.609Z,32.03
2023-04-11T05:20:36.174Z,32.08
2023-04-11T05:25:53.003Z,32.23
2023-04-11T05:31:03.185Z,32.36
2023-04-11T05:36:10.544Z,32.27
2023-04-11T05:41:17.947Z,32.16
2023-04-11T05:46:25.383Z,32.11
2023-04-11T05:51:32.845Z,32.19
2023-04-11T05:56:40.226Z,32.49
2023-04-11T06:01:47.675Z,32.43
2023-04-11T06:06:54.871Z,32.52
2023-04-11T06:12:02.242Z,32.35
2023-04-11T06:17:09.629Z,32.14
2023-04-11T06:22:16.853Z,32.17
2023-04-11T06:27:24.078Z,32.15
2023-04-11T06:32:31.697Z,32.75
2023-04-11T06:37:38.988Z,32.49
2023-04-11T06:42:52.836Z,33.03
2023-04-11T06:48:00.415Z,33.10
2023-04-11T06:53:07.640Z,32.49
2023-04-11T06:58:15.029Z,32.56
2023-04-11T07:03:22.548Z,32.30
2023-04-11T07:08:30.045Z,32.30
2023-04-11T07:13:37.628Z,32.30
2023-04-11T07:18:44.928Z,32.33
2023-04-11T07:23:52.129Z,32.44
2023-04-11T07:28:59.628Z,32.58
2023-04-11T07:34:07.078Z,32.88
2023-04-11T07:39:14.452Z,32.46
2023-04-11T07:44:22.226Z,32.43
2023-04-11T07:49:29.133Z,33.25
2023-04-11T07:54:36.749Z,33.49
2023-04-11T07:59:44.096Z,33.20
2023-04-11T08:04:51.570Z,33.20
2023-04-11T08:09:58.699Z,33.05
2023-04-11T08:15:06.059Z,33.10
2023-04-11T08:20:13.611Z,33.38
2023-04-11T08:25:20.931Z,33.07
2023-04-11T08:30:28.474Z,33.26
2023-04-11T08:35:35.961Z,33.09
2023-04-11T08:40:43.259Z,33.20
2023-04-11T08:45:50.645Z,33.19
2023-04-11T08:50:58.029Z,33.13
2023-04-11T08:56:05.458Z,33.11
2023-04-11T09:01:12.799Z,32.97
2023-04-11T09:06:19.989Z,32.91
2023-04-11T09:11:27.361Z,33.03
2023-04-11T09:16:34.668Z,33.26
2023-04-11T09:21:42.083Z,33.37
2023-04-11T09:26:49.578Z,32.87
2023-04-11T09:31:56.906Z,33.04
2023-04-11T09:37:04.243Z,32.84
2023-04-11T09:42:11.456Z,32.91
2023-04-11T09:47:18.671Z,32.95
2023-04-11T09:52:25.982Z,33.23
2023-04-11T09:57:33.411Z,32.71
2023-04-11T10:02:41.016Z,32.81
2023-04-11T10:07:48.149Z,32.82
2023-04-11T10:12:55.429Z,33.14
2023-04-11T10:18:02.698Z,33.32
2023-04-11T10:23:10.199Z,33.00
2023-04-11T10:28:17.343Z,32.73
2023-04-11T10:33:24.570Z,33.40
2023-04-11T10:38:31.840Z,32.91
2023-04-11T10:43:39.361Z,33.24
2023-04-11T10:48:46.636Z,33.27
2023-04-11T10:53:53.970Z,33.52
2023-04-11T10:59:01.242Z,33.51
2023-04-11T11:04:09.011Z,33.48
2023-04-11T11:09:15.732Z,33.26
2023-04-11T11:14:23.004Z,33.28
2023-04-11T11:19:30.320Z,33.49
2023-04-11T11:24:37.628Z,32.97
2023-04-11T11:29:44.967Z,33.01
2023-04-11T11:34:52.258Z,33.06
2023-04-11T11:39:59.557Z,32.87
2023-04-11T11:45:06.809Z,32.76
2023-04-11T11:50:14.119Z,32.67
2023-04-11T11:55:21.380Z,32.68
2023-04-11T12:00:28.566Z,32.78
2023-04-11T12:05:36.006Z,32.97
2023-04-11T12:10:43.300Z,32.91
2023-04-11T12:15:50.348Z,32.94
2023-04-11T12:20:57.597Z,32.94
2023-04-11T12:26:04.834Z,32.99
2023-04-11T12:31:11.969Z,32.98
2023-04-11T12:36:19.194Z,32.99
2023-04-11T12:46:33.913Z,33.03
2023-04-11T12:51:40.886Z,33.04
2023-04-11T12:56:48.349Z,33.04
2023-04-11T13:01:55.421Z,33.12
2023-04-11T13:07:02.538Z,33.19
2023-04-11T13:12:09.754Z,33.21
2023-04-11T13:17:16.931Z,33.17
2023-04-11T13:22:24.098Z,33.25
2023-04-11T13:27:31.320Z,33.34
2023-04-11T13:32:38.678Z,33.38
2023-04-11T13:37:45.776Z,33.31
2023-04-11T13:42:53.091Z,33.33
2023-04-11T13:48:00.339Z,33.35
2023-04-11T13:53:07.435Z,33.40
2023-04-11T13:58:14.700Z,33.39
2023-04-11T14:03:21.875Z,33.49
2023-04-11T14:08:29.343Z,33.48
2023-04-11T14:13:36.380Z,33.55
2023-04-11T14:18:43.542Z,33.57
2023-04-11T14:23:50.913Z,33.53
2023-04-11T14:28:58.123Z,33.62
2023-04-11T14:34:05.317Z,33.62
2023-04-11T14:39:12.601Z,33.64
2023-04-11T14:44:19.900Z,33.55
2023-04-11T14:49:27.062Z,33.64
2023-04-11T14:54:34.248Z,33.53
2023-04-11T14:59:42.418Z,33.55
2023-04-11T15:04:49.709Z,33.53
2023-04-11T15:09:56.785Z,33.55
2023-04-11T15:15:04.013Z,33.58
2023-04-11T15:20:11.164Z,33.61
2023-04-11T15:25:18.436Z,33.70
2023-04-11T15:30:25.675Z,33.62
2023-04-11T15:35:32.911Z,33.55
2023-04-11T15:40:40.150Z,33.58
2023-04-11T15:45:47.432Z,33.57
2023-04-11T15:50:54.563Z,33.53
2023-04-11T15:56:01.746Z,33.65
2023-04-11T16:01:08.964Z,33.59
2023-04-11T16:06:16.123Z,33.60
2023-04-11T16:11:23.320Z,33.64
2023-04-11T16:16:30.576Z,33.64
2023-04-11T16:21:37.699Z,33.65
2023-04-11T16:26:44.961Z,33.65
2023-04-11T16:31:52.327Z,33.68
2023-04-11T16:36:59.492Z,33.75
2023-04-11T16:42:06.612Z,33.94
2023-04-11T16:47:13.996Z,33.83
2023-04-11T16:52:21.205Z,33.84
2023-04-11T16:57:28.398Z,33.86
2023-04-11T17:02:35.772Z,33.88
2023-04-11T17:07:42.778Z,33.92
2023-04-11T17:12:50.025Z,33.97
2023-04-11T17:17:57.281Z,34.41
2023-04-11T17:23:04.410Z,36.16
2023-04-11T17:28:11.603Z,35.94
2023-04-11T17:33:18.850Z,36.00
2023-04-11T17:38:26.098Z,35.42
2023-04-11T17:43:33.237Z,35.20
2023-04-11T17:48:40.458Z,35.16
2023-04-11T17:53:47.648Z,34.76
2023-04-11T17:58:54.899Z,34.71
2023-04-11T18:04:02.706Z,34.46
2023-04-11T18:09:09.262Z,34.33
2023-04-11T18:14:16.452Z,34.20
2023-04-11T18:19:23.671Z,34.05
2023-04-11T18:24:31.053Z,33.91
2023-04-11T18:29:38.415Z,33.82
2023-04-11T18:34:45.989Z,33.68
2023-04-11T18:39:53.195Z,33.58
2023-04-11T18:45:00.504Z,33.56
2023-04-11T18:50:08.269Z,33.49
2023-04-11T18:55:15.597Z,33.46
2023-04-11T19:00:23.119Z,33.33
2023-04-11T19:05:30.913Z,33.28
2023-04-11T19:10:38.077Z,33.19
2023-04-11T19:15:45.659Z,33.10
2023-04-11T19:20:53.404Z,33.08
2023-04-11T19:26:01.036Z,33.07
2023-04-11T19:31:08.604Z,32.94
2023-04-11T19:36:16.239Z,32.87
2023-04-11T19:41:23.942Z,32.75
2023-04-11T19:46:32.711Z,32.74
2023-04-11T19:51:40.423Z,32.72
2023-04-11T19:56:47.823Z,32.61
2023-04-11T20:01:55.401Z,32.62
2023-04-11T20:07:03.201Z,32.59
2023-04-11T20:12:10.470Z,32.54
2023-04-11T20:17:17.720Z,32.52
2023-04-11T20:22:24.985Z,32.52
2023-04-11T20:27:32.470Z,32.46
2023-04-11T20:32:39.942Z,32.43
2023-04-11T20:37:47.234Z,32.41
2023-04-11T20:42:54.487Z,32.35
2023-04-11T20:48:01.928Z,33.10
2023-04-11T20:53:09.071Z,33.50
2023-04-11T20:58:16.252Z,33.68
2023-04-11T21:03:23.521Z,33.56
2023-04-11T21:08:30.708Z,33.49
2023-04-11T21:13:37.838Z,33.49
2023-04-11T21:18:45.086Z,33.40
2023-04-11T21:23:52.288Z,33.44
2023-04-11T21:28:59.529Z,33.45
2023-04-11T21:34:06.817Z,33.33
2023-04-11T21:39:14.172Z,33.33
2023-04-11T21:44:21.271Z,33.38
2023-04-11T21:49:28.466Z,33.21
2023-04-11T21:54:35.787Z,33.30
2023-04-11T21:59:42.947Z,33.26
2023-04-11T22:05:04.635Z,33.29
2023-04-11T22:09:57.540Z,33.20
2023-04-11T22:15:04.685Z,33.19
2023-04-11T22:20:11.880Z,33.22
2023-04-11T22:25:19.498Z,33.26
2023-04-11T22:30:26.646Z,33.14
2023-04-11T22:35:33.941Z,33.17
2023-04-11T22:40:41.136Z,33.00
2023-04-11T22:45:48.354Z,33.13
2023-04-11T22:50:55.604Z,33.02
2023-04-11T22:56:02.794Z,33.00
2023-04-11T23:01:10.012Z,33.26
2023-04-11T23:06:17.148Z,32.96
2023-04-11T23:11:24.462Z,32.97
2023-04-11T23:16:31.734Z,33.01
2023-04-11T23:21:39.068Z,32.97
2023-04-11T23:26:46.404Z,33.05
2023-04-11T23:31:53.562Z,33.04
2023-04-11T23:37:00.826Z,32.98
2023-04-11T23:42:08.089Z,32.97
2023-04-11T23:47:15.332Z,32.94
2023-04-11T23:52:22.502Z,32.91
2023-04-11T23:57:29.830Z,32.94
